Time;durP1;ratioP1;P1;durP2;ratioP2;P2;SDS_P1;SDS_P2;PMS_P1;PMS_P2;Temp;Humidity;BMP_temperature;BMP_pressure;BME280_temperature;BME280_humidity;BME280_pressure;Samples;Min_cycle;Max_cycle;Signal;HPM_P1;HPM_P2
2021/09/01 00:01:39;;;;;;;9.75;7.38;;;;;;;;;;4934036;29;20098;-52
2021/09/01 00:04:06;;;;;;;11.45;8.65;;;;;;;;;;4931598;29;20485;-51
2021/09/01 00:06:33;;;;;;;10.52;8.18;;;;;;;;;;4933615;29;20130;-48
2021/09/01 00:08:59;;;;;;;10.85;8.40;;;;;;;;;;4931847;29;20046;-52
2021/09/01 00:11:26;;;;;;;11.02;7.72;;;;;;;;;;4934738;29;20043;-51
2021/09/01 00:13:53;;;;;;;9.68;8.15;;;;;;;;;;4928841;29;20051;-53
2021/09/01 00:16:26;;;;;;;10.45;7.82;;;;;;;;;;4933805;29;20107;-52
2021/09/01 00:18:57;;;;;;;12.13;8.93;;;;;;;;;;4932864;29;20114;-52
2021/09/01 00:21:24;;;;;;;12.32;8.88;;;;;;;;;;4931468;29;20055;-51
2021/09/01 00:23:51;;;;;;;10.82;8.15;;;;;;;;;;4934545;29;20400;-52
2021/09/01 00:26:18;;;;;;;10.02;8.23;;;;;;;;;;4933184;29;20073;-52
2021/09/01 00:28:45;;;;;;;12.43;8.50;;;;;;;;;;4931646;29;20453;-52
2021/09/01 00:31:12;;;;;;;11.25;8.65;;;;;;;;;;4929714;29;20130;-52
2021/09/01 00:33:39;;;;;;;11.60;8.90;;;;;;;;;;4933631;29;20044;-49
2021/09/01 00:36:06;;;;;;;13.32;8.43;;;;;;;;;;4931880;29;20050;-49
2021/09/01 00:38:33;;;;;;;11.95;9.55;;;;;;;;;;4911205;29;20032;-52
2021/09/01 00:40:59;;;;;;;11.45;9.10;;;;;;;;;;4932798;29;20122;-52
2021/09/01 00:43:26;;;;;;;13.52;9.38;;;;;;;;;;4933236;29;20573;-50
2021/09/01 00:45:53;;;;;;;12.35;9.43;;;;;;;;;;4932231;29;20134;-51
2021/09/01 00:48:21;;;;;;;15.00;9.63;;;;;;;;;;4933619;29;20071;-51
2021/09/01 00:50:57;;;;;;;11.73;9.25;;;;;;;;;;4929894;29;20048;-51
2021/09/01 00:53:24;;;;;;;12.70;9.32;;;;;;;;;;4931466;29;20048;-51
2021/09/01 00:55:52;;;;;;;11.98;9.40;;;;;;;;;;4933937;29;20043;-48
2021/09/01 00:58:19;;;;;;;12.85;9.77;;;;;;;;;;4932257;29;20052;-50
2021/09/01 01:03:32;;;;;;;11.65;8.65;;;;;;;;;;4931795;29;20397;-52
2021/09/01 01:05:59;;;;;;;14.45;10.18;;;;;;;;;;4933785;29;20043;-52
2021/09/01 01:08:27;;;;;;;12.65;9.50;;;;;;;;;;4931952;29;20453;-50
2021/09/01 01:10:55;;;;;;;11.75;9.32;;;;;;;;;;4934840;29;20074;-49
2021/09/01 01:13:21;;;;;;;11.88;9.32;;;;;;;;;;4931195;29;20134;-49
2021/09/01 01:15:48;;;;;;;12.48;9.98;;;;;;;;;;4930243;29;20729;-49
2021/09/01 01:18:16;;;;;;;13.98;9.35;;;;;;;;;;4932839;29;20457;-53
2021/09/01 01:20:46;;;;;;;13.10;9.20;;;;;;;;;;4934674;29;20039;-49
2021/09/01 01:23:12;;;;;;;12.20;9.55;;;;;;;;;;4926231;29;20537;-51
2021/09/01 01:25:39;;;;;;;11.07;8.80;;;;;;;;;;4933777;29;20036;-52
2021/09/01 01:28:07;;;;;;;12.32;9.43;;;;;;;;;;4932257;29;20039;-53
2021/09/01 01:30:34;;;;;;;14.80;9.40;;;;;;;;;;4932927;29;20494;-50
2021/09/01 01:33:02;;;;;;;13.98;9.70;;;;;;;;;;4930613;29;20160;-52
2021/09/01 01:35:33;;;;;;;13.88;9.63;;;;;;;;;;4926934;29;20491;-49
2021/09/01 01:38:01;;;;;;;11.95;9.48;;;;;;;;;;4930351;29;20043;-50
2021/09/01 01:40:28;;;;;;;13.68;9.40;;;;;;;;;;4933499;29;20482;-48
2021/09/01 01:42:55;;;;;;;12.00;8.65;;;;;;;;;;4930550;29;20046;-48
2021/09/01 01:45:23;;;;;;;11.05;8.65;;;;;;;;;;4930753;29;20044;-52
2021/09/01 01:47:50;;;;;;;12.57;9.32;;;;;;;;;;4928806;29;20054;-50
2021/09/01 01:50:17;;;;;;;12.38;8.93;;;;;;;;;;4928923;29;20040;-49
2021/09/01 01:52:44;;;;;;;11.98;9.85;;;;;;;;;;4926242;29;20050;-53
2021/09/01 01:55:11;;;;;;;12.70;9.70;;;;;;;;;;4933542;29;20390;-49
2021/09/01 01:57:37;;;;;;;12.57;9.30;;;;;;;;;;4932632;29;20059;-54
2021/09/01 02:00:08;;;;;;;13.10;9.75;;;;;;;;;;4930132;29;20169;-52
2021/09/01 02:02:38;;;;;;;13.98;9.60;;;;;;;;;;4929909;29;20144;-53
2021/09/01 02:05:05;;;;;;;12.05;9.35;;;;;;;;;;4927901;29;20409;-51
2021/09/01 02:07:33;;;;;;;12.45;9.70;;;;;;;;;;4932922;29;20040;-52
2021/09/01 02:10:00;;;;;;;12.65;9.30;;;;;;;;;;4946270;29;20048;-53
2021/09/01 02:12:29;;;;;;;12.73;10.38;;;;;;;;;;4933806;29;20127;-48
2021/09/01 02:14:56;;;;;;;14.38;10.18;;;;;;;;;;4924383;29;20051;-52
2021/09/01 02:17:24;;;;;;;11.88;10.05;;;;;;;;;;4933047;29;20048;-52
2021/09/01 02:19:51;;;;;;;13.85;9.55;;;;;;;;;;4931379;29;20047;-50
2021/09/01 02:22:18;;;;;;;13.15;9.05;;;;;;;;;;4932227;29;20055;-50
2021/09/01 02:24:45;;;;;;;11.85;9.65;;;;;;;;;;4930774;29;20054;-53
2021/09/01 02:27:12;;;;;;;12.45;9.40;;;;;;;;;;4934156;29;20040;-52
2021/09/01 02:29:39;;;;;;;11.65;9.07;;;;;;;;;;4921266;29;20046;-52
2021/09/01 02:32:06;;;;;;;13.02;9.20;;;;;;;;;;4931827;29;20036;-49
2021/09/01 02:34:36;;;;;;;14.40;9.80;;;;;;;;;;4922973;29;20545;-49
2021/09/01 02:37:03;;;;;;;12.48;9.77;;;;;;;;;;4932083;29;20043;-48
2021/09/01 02:39:30;;;;;;;12.23;9.30;;;;;;;;;;4931416;29;20043;-49
2021/09/01 02:41:57;;;;;;;11.45;8.98;;;;;;;;;;4934381;29;20407;-51
2021/09/01 02:44:24;;;;;;;13.20;9.85;;;;;;;;;;4929365;29;20054;-49
2021/09/01 02:46:50;;;;;;;13.63;10.70;;;;;;;;;;4933302;29;20040;-52
2021/09/01 02:49:17;;;;;;;12.80;10.30;;;;;;;;;;4936014;29;20040;-49
2021/09/01 02:51:44;;;;;;;14.43;9.95;;;;;;;;;;4928860;29;20031;-49
2021/09/01 02:54:10;;;;;;;14.98;10.20;;;;;;;;;;4934229;29;20047;-52
2021/09/01 02:56:37;;;;;;;14.50;9.85;;;;;;;;;;4923465;29;20040;-50
2021/09/01 02:59:04;;;;;;;13.43;9.40;;;;;;;;;;4929847;29;20059;-51
2021/09/01 03:01:30;;;;;;;15.57;10.52;;;;;;;;;;4936210;29;20114;-49
2021/09/01 03:03:58;;;;;;;14.38;9.48;;;;;;;;;;4931536;29;20040;-49
2021/09/01 03:06:24;;;;;;;13.27;10.38;;;;;;;;;;4934793;29;20035;-54
2021/09/01 03:08:51;;;;;;;13.23;9.63;;;;;;;;;;4932477;29;20565;-51
2021/09/01 03:11:18;;;;;;;13.27;10.35;;;;;;;;;;4932570;29;20040;-51
2021/09/01 03:13:45;;;;;;;13.93;10.18;;;;;;;;;;4926407;29;20044;-51
2021/09/01 03:16:11;;;;;;;14.60;9.68;;;;;;;;;;4935961;29;20043;-51
2021/09/01 03:18:38;;;;;;;12.10;9.90;;;;;;;;;;4935502;29;20071;-50
2021/09/01 03:21:05;;;;;;;14.10;10.32;;;;;;;;;;4933059;29;20656;-49
2021/09/01 03:23:32;;;;;;;13.50;9.57;;;;;;;;;;4934288;29;20039;-50
2021/09/01 03:25:59;;;;;;;14.77;9.75;;;;;;;;;;4935457;29;20122;-53
2021/09/01 03:28:25;;;;;;;14.65;10.45;;;;;;;;;;4929525;29;20047;-53
2021/09/01 03:30:52;;;;;;;15.20;10.57;;;;;;;;;;4934954;29;20040;-52
2021/09/01 03:33:19;;;;;;;13.02;10.35;;;;;;;;;;4932696;29;20043;-51
2021/09/01 03:35:45;;;;;;;14.82;11.00;;;;;;;;;;4933855;29;20039;-49
2021/09/01 03:38:14;;;;;;;14.73;11.15;;;;;;;;;;4932751;29;20044;-49
2021/09/01 03:40:41;;;;;;;15.50;10.55;;;;;;;;;;4934235;29;20043;-49
2021/09/01 03:43:09;;;;;;;15.23;9.88;;;;;;;;;;4931791;29;20054;-51
2021/09/01 03:45:36;;;;;;;14.27;10.00;;;;;;;;;;4933329;29;20040;-50
2021/09/01 03:48:04;;;;;;;13.35;10.10;;;;;;;;;;4933682;29;20126;-49
2021/09/01 03:50:30;;;;;;;15.65;10.13;;;;;;;;;;4931113;29;20039;-51
2021/09/01 03:52:57;;;;;;;12.30;9.95;;;;;;;;;;4935994;29;20048;-50
2021/09/01 03:55:24;;;;;;;15.93;11.05;;;;;;;;;;4931043;29;20047;-50
2021/09/01 03:57:51;;;;;;;14.70;10.25;;;;;;;;;;4934396;29;20130;-52
2021/09/01 04:00:18;;;;;;;16.40;11.00;;;;;;;;;;4925794;29;20047;-49
2021/09/01 04:02:46;;;;;;;14.15;10.27;;;;;;;;;;4932218;29;20054;-49
2021/09/01 04:05:12;;;;;;;13.95;9.57;;;;;;;;;;4928609;29;20649;-49
2021/09/01 04:07:39;;;;;;;15.90;10.85;;;;;;;;;;4934315;29;20126;-49
2021/09/01 04:10:06;;;;;;;13.80;9.98;;;;;;;;;;4935512;29;20043;-51
2021/09/01 04:12:33;;;;;;;14.50;10.15;;;;;;;;;;4934431;29;20638;-52
2021/09/01 04:14:59;;;;;;;13.98;9.98;;;;;;;;;;4926074;29;20509;-52
2021/09/01 04:17:30;;;;;;;14.23;9.50;;;;;;;;;;4928158;29;20072;-52
2021/09/01 04:19:57;;;;;;;13.48;9.48;;;;;;;;;;4933911;28;20052;-51
2021/09/01 04:22:24;;;;;;;14.05;9.70;;;;;;;;;;4932899;29;20055;-48
2021/09/01 04:24:51;;;;;;;11.07;8.43;;;;;;;;;;4921227;29;20627;-48
2021/09/01 04:27:18;;;;;;;11.63;9.07;;;;;;;;;;4935253;29;20065;-52
2021/09/01 04:29:45;;;;;;;13.30;9.30;;;;;;;;;;4932403;29;20040;-52
2021/09/01 04:32:11;;;;;;;13.60;10.30;;;;;;;;;;4930461;29;20043;-50
2021/09/01 04:34:38;;;;;;;13.57;10.38;;;;;;;;;;4932418;29;20127;-49
2021/09/01 04:37:05;;;;;;;14.63;9.93;;;;;;;;;;4931385;29;20051;-52
2021/09/01 04:39:31;;;;;;;13.95;9.43;;;;;;;;;;4933949;29;20043;-55
2021/09/01 04:41:59;;;;;;;14.00;10.07;;;;;;;;;;4933152;29;20052;-55
2021/09/01 04:44:26;;;;;;;15.45;10.23;;;;;;;;;;4929114;29;20236;-52
2021/09/01 04:46:53;;;;;;;13.88;9.32;;;;;;;;;;4933020;29;20116;-52
2021/09/01 04:49:20;;;;;;;12.88;10.18;;;;;;;;;;4933903;29;20047;-54
2021/09/01 04:51:46;;;;;;;11.45;8.63;;;;;;;;;;4933182;29;20038;-52
2021/09/01 04:54:13;;;;;;;45.95;10.88;;;;;;;;;;4927433;29;20058;-49
2021/09/01 04:56:40;;;;;;;13.43;10.30;;;;;;;;;;4934670;29;20143;-48
2021/09/01 04:59:06;;;;;;;12.02;8.85;;;;;;;;;;4931770;29;20126;-48
2021/09/01 05:01:33;;;;;;;14.13;9.52;;;;;;;;;;4928210;29;20032;-51
2021/09/01 05:04:00;;;;;;;11.05;8.52;;;;;;;;;;4926345;29;20044;-53
2021/09/01 05:06:28;;;;;;;11.30;8.20;;;;;;;;;;4931607;29;20070;-51
2021/09/01 05:08:55;;;;;;;11.98;8.15;;;;;;;;;;4932770;29;20067;-50
2021/09/01 05:11:22;;;;;;;11.18;8.10;;;;;;;;;;4932358;29;20039;-49
2021/09/01 05:13:49;;;;;;;10.27;7.68;;;;;;;;;;4930446;29;20512;-48
2021/09/01 05:16:16;;;;;;;11.05;7.82;;;;;;;;;;4933019;29;20047;-52
2021/09/01 05:18:43;;;;;;;13.93;7.28;;;;;;;;;;4931427;29;20042;-49
2021/09/01 05:21:11;;;;;;;13.00;7.43;;;;;;;;;;4930354;29;20742;-50
2021/09/01 05:23:39;;;;;;;12.30;7.28;;;;;;;;;;4931497;29;20046;-51
2021/09/01 05:26:07;;;;;;;12.25;7.35;;;;;;;;;;4934468;29;20047;-53
2021/09/01 05:28:35;;;;;;;10.07;7.53;;;;;;;;;;4929571;29;20210;-49
2021/09/01 05:31:06;;;;;;;12.63;7.95;;;;;;;;;;4933001;29;20067;-52
2021/09/01 05:33:35;;;;;;;11.10;7.32;;;;;;;;;;4931652;29;20051;-52
2021/09/01 05:36:03;;;;;;;11.02;7.78;;;;;;;;;;4932095;29;20059;-48
2021/09/01 05:38:31;;;;;;;13.40;8.32;;;;;;;;;;4928578;29;20044;-51
2021/09/01 05:40:58;;;;;;;9.88;7.45;;;;;;;;;;4930493;29;20232;-51
2021/09/01 05:43:26;;;;;;;9.80;7.85;;;;;;;;;;4928808;29;20070;-50
2021/09/01 05:45:53;;;;;;;12.70;7.32;;;;;;;;;;4932517;29;20036;-51
2021/09/01 05:48:20;;;;;;;12.52;7.68;;;;;;;;;;4934164;29;20058;-51
2021/09/01 05:50:54;;;;;;;10.88;8.00;;;;;;;;;;4928630;29;20054;-52
2021/09/01 05:53:21;;;;;;;11.05;7.93;;;;;;;;;;4931060;29;20119;-50
2021/09/01 05:55:49;;;;;;;10.18;7.80;;;;;;;;;;4931751;29;20044;-49
2021/09/01 05:58:17;;;;;;;13.48;8.23;;;;;;;;;;4932659;29;20044;-52
2021/09/01 06:00:49;;;;;;;11.35;8.75;;;;;;;;;;4926088;29;20044;-51
2021/09/01 06:03:22;;;;;;;11.48;8.82;;;;;;;;;;4930756;29;20048;-52
2021/09/01 06:05:52;;;;;;;14.35;9.65;;;;;;;;;;4930620;29;20106;-52
2021/09/01 06:08:21;;;;;;;13.50;9.75;;;;;;;;;;4932387;29;20102;-50
2021/09/01 06:10:48;;;;;;;16.75;9.68;;;;;;;;;;4933011;29;20058;-52
2021/09/01 06:13:15;;;;;;;16.05;9.75;;;;;;;;;;4930542;29;20113;-54
2021/09/01 06:15:42;;;;;;;15.85;9.95;;;;;;;;;;4930924;29;20143;-53
2021/09/01 06:18:09;;;;;;;16.65;10.90;;;;;;;;;;4935112;29;20079;-50
2021/09/01 06:20:37;;;;;;;16.45;10.68;;;;;;;;;;4935961;29;20170;-51
2021/09/01 06:23:04;;;;;;;16.30;10.50;;;;;;;;;;4934578;29;20043;-51
2021/09/01 06:25:30;;;;;;;15.32;10.70;;;;;;;;;;4934715;29;20469;-53
2021/09/01 06:27:59;;;;;;;17.45;11.70;;;;;;;;;;4936059;29;20050;-54
2021/09/01 06:30:26;;;;;;;16.40;10.32;;;;;;;;;;4936702;29;20127;-53
2021/09/01 06:32:52;;;;;;;14.90;11.27;;;;;;;;;;4932969;29;20042;-50
2021/09/01 06:35:19;;;;;;;15.50;11.10;;;;;;;;;;4929304;29;20611;-49
2021/09/01 06:37:47;;;;;;;15.27;11.50;;;;;;;;;;4936385;29;20055;-47
2021/09/01 06:40:15;;;;;;;14.45;10.77;;;;;;;;;;4935847;29;20111;-51
2021/09/01 06:42:43;;;;;;;14.20;10.85;;;;;;;;;;4931815;29;20051;-49
2021/09/01 06:45:11;;;;;;;15.60;10.88;;;;;;;;;;4935076;29;20074;-49
2021/09/01 06:47:41;;;;;;;15.45;10.07;;;;;;;;;;4933946;29;20050;-51
2021/09/01 06:50:09;;;;;;;18.58;11.10;;;;;;;;;;4937361;29;20413;-49
2021/09/01 06:52:36;;;;;;;16.15;10.57;;;;;;;;;;4929527;29;20488;-49
2021/09/01 06:55:03;;;;;;;14.75;11.23;;;;;;;;;;4931242;29;20083;-51
2021/09/01 06:57:31;;;;;;;15.00;10.82;;;;;;;;;;4935329;29;20051;-50
2021/09/01 06:59:58;;;;;;;16.65;10.55;;;;;;;;;;4935764;29;20044;-52
2021/09/01 07:02:24;;;;;;;17.08;10.38;;;;;;;;;;4932262;29;20055;-49
2021/09/01 07:04:51;;;;;;;15.32;10.82;;;;;;;;;;4929409;29;20122;-50
2021/09/01 07:07:18;;;;;;;16.88;10.63;;;;;;;;;;4932863;29;20036;-50
2021/09/01 07:09:45;;;;;;;15.27;10.13;;;;;;;;;;4934478;29;20406;-53
2021/09/01 07:12:12;;;;;;;13.77;10.02;;;;;;;;;;4926158;29;20052;-53
2021/09/01 07:14:38;;;;;;;19.20;12.93;;;;;;;;;;4936409;29;20126;-53
2021/09/01 07:17:05;;;;;;;14.77;10.68;;;;;;;;;;4935243;29;20075;-52
2021/09/01 07:19:32;;;;;;;13.25;10.30;;;;;;;;;;4936187;29;20673;-53
2021/09/01 07:21:59;;;;;;;13.98;10.25;;;;;;;;;;4932799;29;20079;-52
2021/09/01 07:24:25;;;;;;;15.07;10.10;;;;;;;;;;4935352;29;20047;-55
2021/09/01 07:26:52;;;;;;;13.02;9.60;;;;;;;;;;4934736;29;20139;-54
2021/09/01 07:29:19;;;;;;;12.82;9.57;;;;;;;;;;4935801;29;20470;-53
2021/09/01 07:31:46;;;;;;;13.43;9.27;;;;;;;;;;4929727;29;20039;-54
2021/09/01 07:34:12;;;;;;;16.23;9.13;;;;;;;;;;4930940;29;20123;-55
2021/09/01 07:36:39;;;;;;;12.25;8.85;;;;;;;;;;4935101;29;20036;-53
2021/09/01 07:39:06;;;;;;;15.10;9.10;;;;;;;;;;4935766;29;20039;-55
2021/09/01 07:41:33;;;;;;;11.93;8.27;;;;;;;;;;4935114;29;20046;-55
2021/09/01 07:44:00;;;;;;;12.73;9.18;;;;;;;;;;4929523;29;20070;-52
2021/09/01 07:46:27;;;;;;;13.20;9.95;;;;;;;;;;4935535;29;20552;-49
2021/09/01 07:48:57;;;;;;;11.30;9.40;;;;;;;;;;4934868;29;20094;-48
2021/09/01 07:51:24;;;;;;;11.52;9.38;;;;;;;;;;4934133;29;20044;-51
2021/09/01 07:53:51;;;;;;;13.00;9.07;;;;;;;;;;4934284;29;20040;-48
2021/09/01 07:56:18;;;;;;;11.35;8.52;;;;;;;;;;4935990;29;20525;-51
2021/09/01 07:58:44;;;;;;;13.05;8.68;;;;;;;;;;4935846;29;20465;-50
2021/09/01 08:01:11;;;;;;;12.88;9.40;;;;;;;;;;4934275;29;20055;-51
2021/09/01 08:03:38;;;;;;;12.00;9.27;;;;;;;;;;4929672;29;20127;-53
2021/09/01 08:06:07;;;;;;;11.77;8.23;;;;;;;;;;4934113;29;20044;-50
2021/09/01 08:08:34;;;;;;;11.13;8.20;;;;;;;;;;4930428;29;20047;-47
2021/09/01 08:11:01;;;;;;;10.43;7.50;;;;;;;;;;4932959;29;20458;-52
2021/09/01 08:13:28;;;;;;;9.82;7.20;;;;;;;;;;4933591;29;20039;-54
2021/09/01 08:15:55;;;;;;;10.15;7.38;;;;;;;;;;4937020;29;20047;-54
2021/09/01 08:18:22;;;;;;;10.00;7.50;;;;;;;;;;4935139;29;20040;-52
2021/09/01 08:20:48;;;;;;;10.45;7.45;;;;;;;;;;4933685;29;20044;-52
2021/09/01 08:23:15;;;;;;;10.43;7.53;;;;;;;;;;4934092;29;20516;-53
2021/09/01 08:25:42;;;;;;;12.98;7.65;;;;;;;;;;4934586;29;20047;-49
2021/09/01 08:28:09;;;;;;;9.60;7.43;;;;;;;;;;4934312;29;20075;-54
2021/09/01 08:30:36;;;;;;;13.20;8.43;;;;;;;;;;4932175;29;20138;-49
2021/09/01 08:33:02;;;;;;;13.40;7.85;;;;;;;;;;4933307;29;20047;-51
2021/09/01 08:35:29;;;;;;;9.60;6.95;;;;;;;;;;4928642;29;20134;-53
2021/09/01 08:37:56;;;;;;;11.30;7.03;;;;;;;;;;4934082;29;20055;-48
2021/09/01 08:40:22;;;;;;;11.30;8.10;;;;;;;;;;4932300;29;20040;-47
2021/09/01 08:42:49;;;;;;;12.25;8.07;;;;;;;;;;4932963;29;20046;-54
2021/09/01 08:45:16;;;;;;;9.35;6.82;;;;;;;;;;4934625;29;20102;-56
2021/09/01 08:47:43;;;;;;;10.30;7.35;;;;;;;;;;4928052;29;20039;-56
2021/09/01 08:50:10;;;;;;;8.88;6.90;;;;;;;;;;4933088;29;20130;-56
2021/09/01 08:52:38;;;;;;;12.82;8.32;;;;;;;;;;4929003;29;20135;-55
2021/09/01 08:55:06;;;;;;;11.95;7.30;;;;;;;;;;4939920;29;20585;-53
2021/09/01 08:57:33;;;;;;;10.88;7.43;;;;;;;;;;4932089;29;20166;-54
2021/09/01 09:00:00;;;;;;;14.77;7.40;;;;;;;;;;4928785;29;21728;-52
2021/09/01 09:02:29;;;;;;;12.40;7.25;;;;;;;;;;4933791;29;20126;-52
2021/09/01 09:04:56;;;;;;;11.65;7.18;;;;;;;;;;4931557;29;20119;-53
2021/09/01 09:07:24;;;;;;;10.85;7.10;;;;;;;;;;4933907;29;20581;-56
2021/09/01 09:09:51;;;;;;;8.80;7.20;;;;;;;;;;4930256;29;20050;-53
2021/09/01 09:12:28;;;;;;;10.98;7.03;;;;;;;;;;4929152;29;20052;-52
2021/09/01 09:14:55;;;;;;;11.85;7.45;;;;;;;;;;4928751;29;20048;-53
2021/09/01 09:17:21;;;;;;;9.25;7.32;;;;;;;;;;4930813;29;20417;-51
2021/09/01 09:19:51;;;;;;;11.93;7.75;;;;;;;;;;4931488;29;20045;-51
2021/09/01 09:22:20;;;;;;;10.95;7.32;;;;;;;;;;4932740;29;20700;-53
2021/09/01 09:25:02;;;;;;;9.95;6.82;;;;;;;;;;4932553;29;20071;-53
2021/09/01 09:27:41;;;;;;;8.75;6.70;;;;;;;;;;4927324;29;20040;-53
2021/09/01 09:30:34;;;;;;;10.95;6.72;;;;;;;;;;4930211;29;20044;-52
2021/09/01 09:33:21;;;;;;;8.25;6.63;;;;;;;;;;4931750;29;20407;-53
2021/09/01 09:35:52;;;;;;;8.77;6.78;;;;;;;;;;4919036;29;20058;-55
2021/09/01 09:38:26;;;;;;;8.80;6.30;;;;;;;;;;4932736;29;20056;-51
2021/09/01 09:40:53;;;;;;;8.57;6.10;;;;;;;;;;4933218;29;20066;-52
2021/09/01 09:43:21;;;;;;;9.32;7.05;;;;;;;;;;4930345;29;20043;-52
2021/09/01 09:45:49;;;;;;;10.80;6.43;;;;;;;;;;4931527;29;20458;-55
2021/09/01 09:48:26;;;;;;;7.95;6.10;;;;;;;;;;4932709;29;20047;-53
2021/09/01 09:50:53;;;;;;;6.90;5.25;;;;;;;;;;4936429;29;20485;-54
2021/09/01 09:53:38;;;;;;;7.22;5.30;;;;;;;;;;4934034;29;20409;-51
2021/09/01 09:56:13;;;;;;;9.63;6.60;;;;;;;;;;4936742;29;20072;-53
2021/09/01 09:58:41;;;;;;;7.35;6.00;;;;;;;;;;4934245;29;20052;-54
2021/09/01 10:01:08;;;;;;;10.68;6.07;;;;;;;;;;4936232;29;20047;-53
2021/09/01 10:03:36;;;;;;;8.40;5.97;;;;;;;;;;4935005;29;20074;-49
2021/09/01 10:06:08;;;;;;;7.13;5.55;;;;;;;;;;4936272;29;20649;-49
2021/09/01 10:08:35;;;;;;;8.68;5.15;;;;;;;;;;4935397;29;20503;-49
2021/09/01 10:11:04;;;;;;;9.10;5.63;;;;;;;;;;4935523;29;20040;-53
2021/09/01 10:13:32;;;;;;;19.13;7.00;;;;;;;;;;4933912;29;20076;-52
2021/09/01 10:16:05;;;;;;;8.25;5.57;;;;;;;;;;4923472;29;20079;-50
2021/09/01 10:18:33;;;;;;;6.90;5.25;;;;;;;;;;4934828;29;20497;-51
2021/09/01 10:21:00;;;;;;;7.75;5.78;;;;;;;;;;4934146;29;20051;-51
2021/09/01 10:23:37;;;;;;;7.70;5.35;;;;;;;;;;4932873;29;20429;-52
2021/09/01 10:26:18;;;;;;;8.68;5.47;;;;;;;;;;4937133;29;20401;-53
2021/09/01 10:28:45;;;;;;;7.88;5.78;;;;;;;;;;4933703;29;20059;-51
2021/09/01 10:31:15;;;;;;;7.63;5.40;;;;;;;;;;4926976;29;20050;-54
2021/09/01 10:33:45;;;;;;;6.80;4.75;;;;;;;;;;4934583;29;20514;-53
2021/09/01 10:36:24;;;;;;;8.45;4.80;;;;;;;;;;4930561;29;20508;-52
2021/09/01 10:38:52;;;;;;;7.38;4.70;;;;;;;;;;4933742;29;20071;-52
2021/09/01 10:41:31;;;;;;;6.55;4.68;;;;;;;;;;4933784;29;20050;-51
2021/09/01 10:44:01;;;;;;;7.38;4.60;;;;;;;;;;4927700;29;20058;-52
2021/09/01 10:46:47;;;;;;;5.93;4.53;;;;;;;;;;4929341;29;20040;-53
2021/09/01 10:49:14;;;;;;;8.07;4.80;;;;;;;;;;4932040;29;20062;-54
2021/09/01 10:51:46;;;;;;;7.40;4.78;;;;;;;;;;4931225;29;20067;-53
2021/09/01 10:54:27;;;;;;;6.47;4.20;;;;;;;;;;4923918;29;20039;-52
2021/09/01 10:56:54;;;;;;;6.38;4.13;;;;;;;;;;4933066;29;20075;-52
2021/09/01 10:59:25;;;;;;;6.95;4.43;;;;;;;;;;4933739;29;21936;-56
2021/09/01 11:02:10;;;;;;;8.55;4.20;;;;;;;;;;4931603;29;20055;-51
2021/09/01 11:04:51;;;;;;;7.32;4.47;;;;;;;;;;4930271;29;20044;-56
2021/09/01 11:07:27;;;;;;;8.00;4.75;;;;;;;;;;4942653;28;20116;-54
2021/09/01 11:09:57;;;;;;;7.95;4.10;;;;;;;;;;4935926;29;20036;-55
2021/09/01 11:12:24;;;;;;;5.85;4.07;;;;;;;;;;4931977;29;20067;-51
2021/09/01 11:14:52;;;;;;;7.40;4.55;;;;;;;;;;4935638;29;20139;-54
2021/09/01 11:17:21;;;;;;;9.90;4.57;;;;;;;;;;4936434;29;20051;-52
2021/09/01 11:19:54;;;;;;;8.82;5.68;;;;;;;;;;4934091;29;20040;-52
2021/09/01 11:22:24;;;;;;;7.80;4.22;;;;;;;;;;4931412;29;20044;-50
2021/09/01 11:24:52;;;;;;;5.57;3.60;;;;;;;;;;4933752;29;20481;-53
2021/09/01 11:27:23;;;;;;;6.53;4.20;;;;;;;;;;4933908;29;20225;-51
2021/09/01 11:29:51;;;;;;;25.67;5.78;;;;;;;;;;4932600;29;20042;-51
2021/09/01 11:32:18;;;;;;;7.53;4.07;;;;;;;;;;4927717;29;20127;-53
2021/09/01 11:34:46;;;;;;;7.50;4.45;;;;;;;;;;4927956;29;20066;-50
2021/09/01 11:37:14;;;;;;;7.45;4.00;;;;;;;;;;4935348;29;20051;-54
2021/09/01 11:39:44;;;;;;;5.18;4.10;;;;;;;;;;4933443;29;20048;-53
2021/09/01 11:42:28;;;;;;;5.65;4.13;;;;;;;;;;4934069;29;20043;-50
2021/09/01 11:45:04;;;;;;;10.85;4.85;;;;;;;;;;4935695;29;20070;-51
2021/09/01 11:47:31;;;;;;;6.38;4.53;;;;;;;;;;4934243;29;20520;-51
2021/09/01 11:49:58;;;;;;;8.48;4.00;;;;;;;;;;4935672;29;20049;-50
2021/09/01 11:52:26;;;;;;;6.22;4.13;;;;;;;;;;4933934;29;20510;-52
2021/09/01 11:54:53;;;;;;;5.63;4.43;;;;;;;;;;4934899;29;20046;-51
2021/09/01 11:57:23;;;;;;;6.68;4.53;;;;;;;;;;4935144;29;20122;-52
2021/09/01 11:59:50;;;;;;;7.47;4.97;;;;;;;;;;4926568;29;20535;-52
2021/09/01 12:02:23;;;;;;;6.25;3.72;;;;;;;;;;4925164;29;20567;-52
2021/09/01 12:04:51;;;;;;;6.60;4.07;;;;;;;;;;4934314;29;20051;-54
2021/09/01 12:07:24;;;;;;;8.70;4.63;;;;;;;;;;4935050;29;20480;-51
2021/09/01 12:09:55;;;;;;;6.18;4.55;;;;;;;;;;4935553;29;20119;-54
2021/09/01 12:12:21;;;;;;;5.68;4.43;;;;;;;;;;4929592;29;20071;-54
2021/09/01 12:14:48;;;;;;;5.18;3.78;;;;;;;;;;4934821;29;20462;-54
2021/09/01 12:17:22;;;;;;;5.18;3.80;;;;;;;;;;4932211;29;20086;-53
2021/09/01 12:19:50;;;;;;;8.35;4.88;;;;;;;;;;4935584;29;20044;-50
2021/09/01 12:22:35;;;;;;;6.13;4.00;;;;;;;;;;4933914;29;20066;-52
2021/09/01 12:25:03;;;;;;;5.43;4.10;;;;;;;;;;4933937;29;20162;-50
2021/09/01 12:27:31;;;;;;;8.05;4.13;;;;;;;;;;4932699;29;20462;-51
2021/09/01 12:29:58;;;;;;;4.55;3.45;;;;;;;;;;4934340;29;20043;-52
2021/09/01 12:32:24;;;;;;;4.55;3.75;;;;;;;;;;4934750;29;20114;-52
2021/09/01 12:34:53;;;;;;;5.95;4.00;;;;;;;;;;4933252;29;20173;-52
2021/09/01 12:37:22;;;;;;;5.93;4.05;;;;;;;;;;4934060;29;20090;-52
2021/09/01 12:39:53;;;;;;;6.05;4.53;;;;;;;;;;4934192;29;20059;-50
2021/09/01 12:42:24;;;;;;;6.70;4.28;;;;;;;;;;4923534;29;20048;-51
2021/09/01 12:44:53;;;;;;;6.18;3.97;;;;;;;;;;4925887;29;20047;-50
2021/09/01 12:47:19;;;;;;;6.90;4.63;;;;;;;;;;4937873;29;20047;-52
2021/09/01 12:49:47;;;;;;;6.50;4.10;;;;;;;;;;4945868;29;20047;-53
2021/09/01 12:52:15;;;;;;;7.22;3.80;;;;;;;;;;4928699;29;20046;-50
2021/09/01 12:54:42;;;;;;;7.40;4.47;;;;;;;;;;4934044;29;20047;-53
2021/09/01 12:57:09;;;;;;;6.45;4.45;;;;;;;;;;4934204;29;20047;-50
2021/09/01 12:59:36;;;;;;;6.15;4.30;;;;;;;;;;4933698;29;20048;-52
2021/09/01 13:02:03;;;;;;;6.38;4.53;;;;;;;;;;4933218;29;20044;-49
2021/09/01 13:04:31;;;;;;;8.98;4.38;;;;;;;;;;4931843;29;20078;-51
2021/09/01 13:06:58;;;;;;;7.65;4.15;;;;;;;;;;4934012;29;20050;-51
2021/09/01 13:09:25;;;;;;;6.47;4.28;;;;;;;;;;4938537;29;20046;-51
2021/09/01 13:11:52;;;;;;;6.57;4.20;;;;;;;;;;4938027;28;20098;-51
2021/09/01 13:14:19;;;;;;;7.22;3.95;;;;;;;;;;4937992;29;20035;-51
2021/09/01 13:16:46;;;;;;;6.65;4.05;;;;;;;;;;4933635;29;20046;-51
2021/09/01 13:19:13;;;;;;;6.60;3.95;;;;;;;;;;4928192;29;20051;-50
2021/09/01 13:21:40;;;;;;;6.88;4.00;;;;;;;;;;4928797;29;20046;-52
2021/09/01 13:24:07;;;;;;;4.88;3.60;;;;;;;;;;4932236;29;20048;-51
2021/09/01 13:26:34;;;;;;;6.60;4.35;;;;;;;;;;4933436;29;20040;-50
2021/09/01 13:29:01;;;;;;;7.18;3.92;;;;;;;;;;4929875;29;20047;-54
2021/09/01 13:31:28;;;;;;;6.25;4.45;;;;;;;;;;4933776;29;20040;-54
2021/09/01 13:33:54;;;;;;;6.38;4.03;;;;;;;;;;4931614;29;20040;-54
2021/09/01 13:36:21;;;;;;;5.25;3.40;;;;;;;;;;4933125;29;20054;-52
2021/09/01 13:38:48;;;;;;;5.05;4.07;;;;;;;;;;4932622;29;20043;-53
2021/09/01 13:41:15;;;;;;;4.30;3.40;;;;;;;;;;4932108;29;20040;-54
2021/09/01 13:43:41;;;;;;;4.53;3.50;;;;;;;;;;4930850;29;20586;-52
2021/09/01 13:46:08;;;;;;;5.20;3.53;;;;;;;;;;4936337;29;20048;-52
2021/09/01 13:48:35;;;;;;;5.43;3.92;;;;;;;;;;4932043;29;20095;-54
2021/09/01 13:51:02;;;;;;;5.57;4.32;;;;;;;;;;4922149;29;20043;-54
2021/09/01 13:53:30;;;;;;;4.82;3.67;;;;;;;;;;4933504;29;20062;-52
2021/09/01 13:56:01;;;;;;;7.25;3.72;;;;;;;;;;4933076;29;20719;-54
2021/09/01 13:58:28;;;;;;;5.40;4.00;;;;;;;;;;4937237;28;20779;-55
2021/09/01 14:00:57;;;;;;;5.75;3.88;;;;;;;;;;4930321;29;20040;-56
2021/09/01 14:03:24;;;;;;;5.63;4.07;;;;;;;;;;4930014;29;20490;-54
2021/09/01 14:05:51;;;;;;;5.63;4.00;;;;;;;;;;4929861;29;20050;-54
2021/09/01 14:08:18;;;;;;;6.60;4.55;;;;;;;;;;4932000;29;20044;-58
2021/09/01 14:10:45;;;;;;;6.60;5.13;;;;;;;;;;4932485;29;21633;-53
2021/09/01 14:13:12;;;;;;;6.53;4.30;;;;;;;;;;4930620;29;20350;-48
2021/09/01 14:15:38;;;;;;;6.47;4.30;;;;;;;;;;4932369;29;20054;-55
2021/09/01 14:18:07;;;;;;;5.85;4.20;;;;;;;;;;4933360;29;20057;-56
2021/09/01 14:20:34;;;;;;;5.50;4.00;;;;;;;;;;4934023;29;20509;-55
2021/09/01 14:23:02;;;;;;;10.77;4.60;;;;;;;;;;4932544;29;20557;-58
2021/09/01 14:25:28;;;;;;;6.28;4.53;;;;;;;;;;4927507;29;20486;-54
2021/09/01 14:27:55;;;;;;;7.35;4.65;;;;;;;;;;4931434;29;20405;-61
2021/09/01 14:30:24;;;;;;;5.85;4.30;;;;;;;;;;4934381;28;20043;-61
2021/09/01 14:32:51;;;;;;;6.20;4.45;;;;;;;;;;4927430;29;20063;-56
2021/09/01 14:35:18;;;;;;;6.90;3.80;;;;;;;;;;4929946;29;20043;-55
2021/09/01 14:37:45;;;;;;;6.22;3.97;;;;;;;;;;4935594;29;20043;-56
2021/09/01 14:40:12;;;;;;;6.15;3.92;;;;;;;;;;4936319;29;20424;-53
2021/09/01 14:42:38;;;;;;;6.85;4.00;;;;;;;;;;4937824;29;20051;-52